Time;durP1;ratioP1;P1;durP2;ratioP2;P2;SDS_P1;SDS_P2;PMS_P1;PMS_P2;Temp;Humidity;BMP_temperature;BMP_pressure;BME280_temperature;BME280_humidity;BME280_pressure;Samples;Min_cycle;Max_cycle;Signal;HPM_P1;HPM_P2
2022/10/27 00:02:00;;;;;;;24.73;13.05;;;;;;;;;;4841644;29;20401;-75
2022/10/27 00:04:26;;;;;;;21.70;11.90;;;;;;;;;;4841742;29;20078;-75
2022/10/27 00:06:51;;;;;;;22.92;13.23;;;;;;;;;;4842088;29;20042;-75
2022/10/27 00:09:17;;;;;;;26.75;13.15;;;;;;;;;;4841384;29;20037;-75
2022/10/27 00:11:43;;;;;;;28.25;13.82;;;;;;;;;;4841552;29;20068;-75
2022/10/27 00:14:09;;;;;;;22.73;12.48;;;;;;;;;;4841351;29;20029;-74
2022/10/27 00:16:35;;;;;;;26.73;12.82;;;;;;;;;;4851268;29;20052;-75
2022/10/27 00:19:01;;;;;;;25.10;13.15;;;;;;;;;;4854996;29;20033;-74
2022/10/27 00:21:27;;;;;;;24.00;11.32;;;;;;;;;;4852805;29;20509;-74
2022/10/27 00:23:53;;;;;;;21.65;13.52;;;;;;;;;;4852735;29;20025;-74
2022/10/27 00:26:21;;;;;;;23.85;11.80;;;;;;;;;;4851763;29;20081;-74
2022/10/27 00:28:47;;;;;;;20.40;11.82;;;;;;;;;;4850788;29;20027;-74
2022/10/27 00:31:18;;;;;;;19.80;11.93;;;;;;;;;;4853767;29;20033;-74
2022/10/27 00:33:45;;;;;;;22.95;11.98;;;;;;;;;;4856142;29;20121;-74
2022/10/27 00:36:13;;;;;;;21.10;12.10;;;;;;;;;;4853542;29;20052;-74
2022/10/27 00:38:39;;;;;;;22.05;12.10;;;;;;;;;;4845620;29;20045;-74
2022/10/27 00:41:07;;;;;;;21.92;11.63;;;;;;;;;;4841857;29;20465;-74
2022/10/27 00:43:36;;;;;;;25.33;12.98;;;;;;;;;;4841702;29;20452;-75
2022/10/27 00:46:10;;;;;;;24.58;13.07;;;;;;;;;;4840816;29;20113;-72
2022/10/27 00:48:36;;;;;;;23.20;12.15;;;;;;;;;;4841702;29;20045;-74
2022/10/27 00:51:03;;;;;;;22.95;11.45;;;;;;;;;;4843438;29;20046;-74
2022/10/27 00:53:30;;;;;;;24.90;12.95;;;;;;;;;;4841359;29;20026;-74
2022/10/27 00:55:56;;;;;;;23.40;11.60;;;;;;;;;;4841233;29;20459;-74
2022/10/27 00:58:22;;;;;;;24.17;12.38;;;;;;;;;;4841347;29;20034;-74
2022/10/27 01:00:48;;;;;;;24.52;11.65;;;;;;;;;;4841714;29;20042;-73
2022/10/27 01:03:19;;;;;;;23.90;11.65;;;;;;;;;;4841293;29;20103;-74
2022/10/27 01:05:45;;;;;;;18.45;11.50;;;;;;;;;;4841816;29;20064;-74
2022/10/27 01:08:13;;;;;;;17.13;11.30;;;;;;;;;;4840330;29;20069;-73
2022/10/27 01:10:38;;;;;;;17.95;10.27;;;;;;;;;;4841409;29;20044;-74
2022/10/27 01:13:05;;;;;;;23.63;11.57;;;;;;;;;;4841405;29;20112;-73
2022/10/27 01:15:44;;;;;;;27.08;12.40;;;;;;;;;;4841027;29;20501;-73
2022/10/27 01:18:25;;;;;;;25.88;12.80;;;;;;;;;;4840636;29;20038;-74
2022/10/27 01:21:14;;;;;;;32.10;12.68;;;;;;;;;;4842143;29;20041;-73
2022/10/27 01:23:49;;;;;;;24.42;12.95;;;;;;;;;;4844815;29;20098;-74
2022/10/27 01:26:39;;;;;;;25.38;13.05;;;;;;;;;;4841152;29;20053;-74
2022/10/27 01:29:52;;;;;;;20.50;12.05;;;;;;;;;;4840466;29;20434;-74
2022/10/27 01:32:38;;;;;;;25.00;12.43;;;;;;;;;;4855891;29;20061;-73
2022/10/27 01:35:19;;;;;;;35.45;13.63;;;;;;;;;;4858943;29;20132;-73
2022/10/27 01:37:52;;;;;;;28.00;12.88;;;;;;;;;;4858900;29;20089;-73
2022/10/27 01:40:20;;;;;;;22.67;12.68;;;;;;;;;;4858948;29;20041;-73
2022/10/27 01:42:57;;;;;;;23.40;12.55;;;;;;;;;;4859371;29;20506;-74
2022/10/27 01:45:27;;;;;;;23.13;12.82;;;;;;;;;;4849405;29;20057;-74
2022/10/27 01:47:54;;;;;;;22.40;11.98;;;;;;;;;;4859417;29;20056;-74
2022/10/27 01:50:28;;;;;;;22.38;12.43;;;;;;;;;;4858304;29;20068;-73
2022/10/27 01:52:54;;;;;;;;;;;;;;;;;;4859667;29;20025;-74
2022/10/27 01:55:25;;;;;;;26.52;12.88;;;;;;;;;;4859303;29;19960;-73
2022/10/27 01:58:12;;;;;;;23.63;12.23;;;;;;;;;;4858953;29;20033;-74
2022/10/27 02:01:07;;;;;;;20.70;11.55;;;;;;;;;;4854934;29;20400;-73
2022/10/27 02:03:38;;;;;;;21.73;11.57;;;;;;;;;;4853842;29;20134;-74
2022/10/27 02:06:13;;;;;;;26.02;13.18;;;;;;;;;;4859158;29;20350;-73
2022/10/27 02:08:51;;;;;;;20.35;11.73;;;;;;;;;;4859071;29;20050;-73
2022/10/27 02:11:18;;;;;;;25.92;12.32;;;;;;;;;;4857940;29;20412;-73
2022/10/27 02:13:45;;;;;;;21.27;10.70;;;;;;;;;;4859252;29;20061;-74
2022/10/27 02:16:24;;;;;;;24.60;12.43;;;;;;;;;;4859123;29;20049;-74
2022/10/27 02:19:04;;;;;;;23.95;12.88;;;;;;;;;;4858770;29;20494;-74
2022/10/27 02:21:33;;;;;;;25.40;12.18;;;;;;;;;;4852960;29;20033;-74
2022/10/27 02:23:59;;;;;;;30.70;12.90;;;;;;;;;;4858675;29;20033;-74
2022/10/27 02:26:42;;;;;;;32.45;12.95;;;;;;;;;;4858617;29;20503;-74
2022/10/27 02:29:30;;;;;;;38.30;17.50;;;;;;;;;;4861781;29;20401;-74
2022/10/27 02:31:59;;;;;;;25.65;15.45;;;;;;;;;;4876106;29;20076;-74
2022/10/27 02:34:25;;;;;;;27.60;12.60;;;;;;;;;;4858402;29;20141;-74
2022/10/27 02:36:52;;;;;;;34.78;13.50;;;;;;;;;;4862365;29;20053;-74
2022/10/27 02:39:18;;;;;;;23.73;13.10;;;;;;;;;;4862403;29;20038;-74
2022/10/27 02:41:43;;;;;;;28.00;12.70;;;;;;;;;;4862268;29;20037;-74
2022/10/27 02:44:09;;;;;;;31.00;13.00;;;;;;;;;;4862245;29;20104;-74
2022/10/27 02:46:35;;;;;;;29.20;12.77;;;;;;;;;;4862091;29;20404;-73
2022/10/27 02:49:01;;;;;;;27.67;12.23;;;;;;;;;;4861231;29;20061;-72
2022/10/27 02:51:27;;;;;;;24.48;12.52;;;;;;;;;;4862080;29;20472;-73
2022/10/27 02:53:52;;;;;;;22.52;11.77;;;;;;;;;;4862320;29;20136;-74
2022/10/27 02:56:18;;;;;;;22.77;11.88;;;;;;;;;;4862069;29;20421;-74
2022/10/27 02:58:44;;;;;;;29.65;13.30;;;;;;;;;;4861746;29;20029;-72
2022/10/27 03:01:10;;;;;;;21.92;11.30;;;;;;;;;;4861916;29;20044;-72
2022/10/27 03:03:36;;;;;;;25.52;11.13;;;;;;;;;;4863931;29;20489;-73
2022/10/27 03:06:02;;;;;;;22.30;11.27;;;;;;;;;;4861983;29;20124;-74
2022/10/27 03:08:28;;;;;;;24.60;11.82;;;;;;;;;;4861720;29;20104;-74
2022/10/27 03:10:54;;;;;;;22.48;10.35;;;;;;;;;;4869804;29;20165;-74
2022/10/27 03:13:19;;;;;;;25.65;11.48;;;;;;;;;;4861718;29;20489;-74
2022/10/27 03:15:45;;;;;;;20.85;11.02;;;;;;;;;;4858702;29;20258;-74
2022/10/27 03:18:12;;;;;;;20.65;10.95;;;;;;;;;;4857910;29;20626;-74
2022/10/27 03:20:38;;;;;;;20.05;11.13;;;;;;;;;;4875670;29;20125;-74
2022/10/27 03:23:04;;;;;;;28.73;12.65;;;;;;;;;;4861285;29;20030;-74
2022/10/27 03:25:30;;;;;;;22.02;12.32;;;;;;;;;;4866432;29;20186;-73
2022/10/27 03:27:56;;;;;;;32.40;12.52;;;;;;;;;;4862782;29;20057;-74
2022/10/27 03:30:22;;;;;;;33.03;13.57;;;;;;;;;;4861101;29;20117;-73
2022/10/27 03:32:49;;;;;;;30.67;14.27;;;;;;;;;;4857703;29;20451;-73
2022/10/27 03:35:17;;;;;;;24.70;12.60;;;;;;;;;;4860833;29;20405;-74
2022/10/27 03:37:43;;;;;;;27.08;12.45;;;;;;;;;;4861318;29;20034;-74
2022/10/27 03:40:10;;;;;;;27.83;12.65;;;;;;;;;;4860145;29;20089;-74
2022/10/27 03:42:44;;;;;;;24.15;12.38;;;;;;;;;;4860485;29;20025;-74
2022/10/27 03:45:11;;;;;;;29.27;13.63;;;;;;;;;;4861106;29;20041;-74
2022/10/27 03:48:13;;;;;;;34.75;15.00;;;;;;;;;;4860589;29;20068;-74
2022/10/27 03:50:39;;;;;;;34.92;14.18;;;;;;;;;;4871353;29;20046;-73
2022/10/27 03:53:05;;;;;;;35.50;15.60;;;;;;;;;;4859764;29;20038;-74
2022/10/27 03:55:32;;;;;;;35.13;15.35;;;;;;;;;;4860300;29;20041;-73
2022/10/27 03:57:58;;;;;;;30.17;15.70;;;;;;;;;;4859446;29;20077;-74
2022/10/27 04:00:25;;;;;;;29.98;14.70;;;;;;;;;;4859904;29;20481;-73
2022/10/27 04:02:54;;;;;;;31.20;15.23;;;;;;;;;;4858313;29;20358;-73
2022/10/27 04:05:22;;;;;;;32.13;15.18;;;;;;;;;;4860462;29;20136;-74
2022/10/27 04:07:47;;;;;;;33.80;15.00;;;;;;;;;;4859852;29;20033;-74
2022/10/27 04:10:13;;;;;;;32.38;14.50;;;;;;;;;;4857017;29;20705;-74
2022/10/27 04:12:50;;;;;;;36.70;14.75;;;;;;;;;;4858621;29;20026;-74
2022/10/27 04:15:17;;;;;;;26.50;13.75;;;;;;;;;;4859238;29;20065;-73
2022/10/27 04:17:43;;;;;;;26.25;13.95;;;;;;;;;;4859574;29;20459;-74
2022/10/27 04:20:09;;;;;;;36.05;14.32;;;;;;;;;;4871110;29;20033;-73
2022/10/27 04:22:35;;;;;;;36.58;13.68;;;;;;;;;;4871835;29;20056;-74
2022/10/27 04:25:01;;;;;;;38.72;14.05;;;;;;;;;;4856643;29;20130;-74
2022/10/27 04:27:27;;;;;;;36.47;15.43;;;;;;;;;;4865415;29;20029;-72
2022/10/27 04:29:53;;;;;;;41.20;16.38;;;;;;;;;;4859713;29;20033;-73
2022/10/27 04:32:19;;;;;;;25.63;13.20;;;;;;;;;;4856052;29;20485;-73
2022/10/27 04:34:44;;;;;;;24.00;13.00;;;;;;;;;;4870273;29;20033;-73
2022/10/27 04:37:10;;;;;;;23.70;11.95;;;;;;;;;;4863229;29;20046;-74
2022/10/27 04:39:36;;;;;;;31.95;13.93;;;;;;;;;;4870216;29;20044;-74
2022/10/27 04:42:02;;;;;;;24.38;12.57;;;;;;;;;;4868593;29;20028;-73
2022/10/27 04:44:28;;;;;;;27.73;13.23;;;;;;;;;;4864135;29;20056;-73
2022/10/27 04:46:54;;;;;;;35.38;15.05;;;;;;;;;;4874780;29;20100;-75
2022/10/27 04:49:20;;;;;;;39.20;13.98;;;;;;;;;;4861349;29;20458;-75
2022/10/27 04:51:46;;;;;;;27.63;13.65;;;;;;;;;;4871359;29;20029;-74
2022/10/27 04:54:11;;;;;;;37.95;13.57;;;;;;;;;;4869353;29;20064;-74
2022/10/27 04:56:37;;;;;;;28.92;13.38;;;;;;;;;;4875285;29;20045;-74
2022/10/27 04:59:03;;;;;;;24.70;13.05;;;;;;;;;;4873408;29;20040;-73
2022/10/27 05:01:29;;;;;;;34.35;12.85;;;;;;;;;;4872554;29;20036;-73
2022/10/27 05:03:55;;;;;;;24.80;13.65;;;;;;;;;;4872510;29;20049;-74
2022/10/27 05:06:21;;;;;;;30.33;13.20;;;;;;;;;;4873548;29;20045;-73
2022/10/27 05:08:46;;;;;;;23.55;12.98;;;;;;;;;;4872148;29;20091;-74
2022/10/27 05:11:12;;;;;;;29.77;15.10;;;;;;;;;;4856614;29;20021;-74
2022/10/27 05:13:38;;;;;;;26.27;14.00;;;;;;;;;;4858290;29;20060;-73
2022/10/27 05:16:04;;;;;;;30.10;13.75;;;;;;;;;;4858905;29;20056;-74
2022/10/27 05:18:31;;;;;;;34.75;14.80;;;;;;;;;;4857171;29;20045;-74
2022/10/27 05:20:57;;;;;;;28.80;12.95;;;;;;;;;;4858676;29;20036;-73
2022/10/27 05:23:23;;;;;;;27.23;12.77;;;;;;;;;;4857919;29;20116;-73
2022/10/27 05:25:53;;;;;;;36.85;18.70;;;;;;;;;;4855802;29;20025;-74
2022/10/27 05:28:20;;;;;;;31.60;15.15;;;;;;;;;;4861280;29;20045;-72
2022/10/27 05:30:46;;;;;;;25.58;13.02;;;;;;;;;;4857657;29;20029;-74
2022/10/27 05:33:12;;;;;;;32.92;14.82;;;;;;;;;;4857612;29;20480;-73
2022/10/27 05:35:38;;;;;;;25.05;12.82;;;;;;;;;;4857157;29;20120;-74
2022/10/27 05:38:04;;;;;;;31.10;14.05;;;;;;;;;;4856734;29;20113;-75
2022/10/27 05:40:33;;;;;;;27.55;12.85;;;;;;;;;;4858010;29;20041;-74
2022/10/27 05:43:00;;;;;;;27.27;13.27;;;;;;;;;;4872568;29;20101;-75
2022/10/27 05:45:26;;;;;;;32.75;14.60;;;;;;;;;;4854423;29;20026;-76
2022/10/27 05:47:58;;;;;;;35.85;14.88;;;;;;;;;;4857056;29;20037;-76
2022/10/27 05:50:25;;;;;;;33.50;13.90;;;;;;;;;;4850830;29;20093;-75
2022/10/27 05:52:50;;;;;;;37.65;13.70;;;;;;;;;;4858090;29;20496;-74
2022/10/27 05:55:16;;;;;;;31.90;13.40;;;;;;;;;;4857743;29;20177;-75
2022/10/27 05:57:42;;;;;;;26.92;12.82;;;;;;;;;;4857532;29;20477;-73
2022/10/27 06:00:08;;;;;;;26.90;13.75;;;;;;;;;;4857840;29;20037;-74
2022/10/27 06:02:34;;;;;;;31.83;14.05;;;;;;;;;;4858399;29;20041;-73
2022/10/27 06:05:00;;;;;;;21.98;12.40;;;;;;;;;;4862157;29;20037;-73
2022/10/27 06:07:26;;;;;;;29.67;12.55;;;;;;;;;;4875106;29;20080;-75
2022/10/27 06:09:51;;;;;;;33.42;13.48;;;;;;;;;;4861412;29;20113;-75
2022/10/27 06:12:18;;;;;;;25.25;12.75;;;;;;;;;;4861213;29;20033;-75
2022/10/27 06:14:43;;;;;;;25.13;11.40;;;;;;;;;;4861024;29;20074;-75
2022/10/27 06:17:09;;;;;;;27.10;12.07;;;;;;;;;;4860492;29;20034;-76
2022/10/27 06:19:35;;;;;;;22.25;10.98;;;;;;;;;;4861632;29;20040;-75
2022/10/27 06:22:01;;;;;;;27.20;11.60;;;;;;;;;;4860873;29;20029;-74
2022/10/27 06:24:27;;;;;;;27.48;11.98;;;;;;;;;;4861000;29;20045;-75
2022/10/27 06:26:53;;;;;;;26.08;11.50;;;;;;;;;;4861498;29;20033;-76
2022/10/27 06:29:18;;;;;;;27.38;12.80;;;;;;;;;;4862368;29;20045;-76
2022/10/27 06:31:45;;;;;;;26.13;13.10;;;;;;;;;;4861984;29;20037;-72
2022/10/27 06:34:11;;;;;;;23.58;12.63;;;;;;;;;;4860980;29;20041;-76
2022/10/27 06:36:37;;;;;;;34.28;13.63;;;;;;;;;;4861714;29;20544;-75
2022/10/27 06:39:03;;;;;;;28.90;13.27;;;;;;;;;;4861547;29;20481;-76
2022/10/27 06:41:28;;;;;;;24.83;13.18;;;;;;;;;;4861456;29;20073;-77
2022/10/27 06:43:54;;;;;;;28.58;15.32;;;;;;;;;;4861648;29;20120;-76
2022/10/27 06:46:20;;;;;;;27.92;13.80;;;;;;;;;;4861835;29;20026;-76
2022/10/27 06:48:46;;;;;;;30.77;13.50;;;;;;;;;;4861298;29;20045;-75
2022/10/27 06:51:12;;;;;;;26.30;13.23;;;;;;;;;;4860809;29;20038;-76
2022/10/27 06:53:37;;;;;;;31.27;12.48;;;;;;;;;;4861366;29;20041;-74
2022/10/27 06:56:03;;;;;;;37.10;14.63;;;;;;;;;;4860818;29;20136;-76
2022/10/27 06:58:29;;;;;;;25.52;13.07;;;;;;;;;;4859550;29;20040;-77
2022/10/27 07:00:59;;;;;;;37.28;13.88;;;;;;;;;;4861014;29;20121;-76
2022/10/27 07:03:24;;;;;;;29.52;13.45;;;;;;;;;;4859217;29;20029;-75
2022/10/27 07:05:50;;;;;;;32.15;13.38;;;;;;;;;;4861241;29;20025;-75
2022/10/27 07:08:16;;;;;;;25.05;12.95;;;;;;;;;;4859394;29;20044;-76
2022/10/27 07:10:42;;;;;;;37.67;16.23;;;;;;;;;;4859552;29;20354;-74
2022/10/27 07:13:08;;;;;;;26.70;13.07;;;;;;;;;;4860466;29;20041;-76
2022/10/27 07:15:37;;;;;;;23.23;12.35;;;;;;;;;;4860532;29;20060;-75
2022/10/27 07:18:07;;;;;;;26.98;12.38;;;;;;;;;;4860338;29;20414;-78
2022/10/27 07:20:34;;;;;;;28.42;13.55;;;;;;;;;;4859462;29;20560;-75
2022/10/27 07:23:01;;;;;;;30.35;12.95;;;;;;;;;;4860699;29;20082;-77
2022/10/27 07:25:28;;;;;;;24.73;13.35;;;;;;;;;;4860011;29;20101;-74
2022/10/27 07:27:54;;;;;;;28.00;13.65;;;;;;;;;;4860278;29;20033;-78
2022/10/27 07:30:25;;;;;;;28.98;13.18;;;;;;;;;;4862740;29;20065;-78
2022/10/27 07:32:50;;;;;;;35.22;13.63;;;;;;;;;;4856858;29;20044;-74
2022/10/27 07:35:17;;;;;;;31.13;12.68;;;;;;;;;;4859812;29;20030;-75
2022/10/27 07:37:43;;;;;;;30.73;14.52;;;;;;;;;;4859632;29;20094;-77
2022/10/27 07:40:10;;;;;;;29.98;13.88;;;;;;;;;;4861549;29;20457;-77
2022/10/27 07:42:48;;;;;;;29.48;14.30;;;;;;;;;;4859849;29;20120;-78
2022/10/27 07:45:16;;;;;;;30.20;13.85;;;;;;;;;;4859825;29;20409;-76
2022/10/27 07:47:46;;;;;;;32.92;14.05;;;;;;;;;;4864319;29;20075;-75
2022/10/27 07:50:13;;;;;;;24.38;12.50;;;;;;;;;;4858644;29;20045;-74
2022/10/27 07:52:42;;;;;;;24.50;10.93;;;;;;;;;;4859982;29;20029;-76
2022/10/27 07:55:10;;;;;;;23.98;11.60;;;;;;;;;;4859233;29;20034;-74
2022/10/27 07:57:36;;;;;;;24.75;12.25;;;;;;;;;;4862596;29;20393;-75
2022/10/27 08:00:04;;;;;;;26.38;12.10;;;;;;;;;;4853116;29;20170;-75
2022/10/27 08:02:37;;;;;;;21.63;10.45;;;;;;;;;;4859217;29;20034;-77
2022/10/27 08:05:03;;;;;;;24.42;10.20;;;;;;;;;;4859970;29;20057;-75
2022/10/27 08:07:29;;;;;;;32.78;10.55;;;;;;;;;;4858905;29;20175;-76
2022/10/27 08:09:55;;;;;;;21.52;9.93;;;;;;;;;;4859183;29;20116;-76
2022/10/27 08:12:21;;;;;;;24.38;9.27;;;;;;;;;;4858413;29;20377;-75
2022/10/27 08:14:47;;;;;;;23.45;10.18;;;;;;;;;;4859314;29;20393;-77
2022/10/27 08:17:13;;;;;;;24.55;10.13;;;;;;;;;;4859047;29;20066;-75
2022/10/27 08:19:39;;;;;;;26.27;10.10;;;;;;;;;;4858969;29;20129;-76
2022/10/27 08:22:05;;;;;;;16.50;9.07;;;;;;;;;;4859343;29;20067;-74
2022/10/27 08:24:31;;;;;;;22.52;9.07;;;;;;;;;;4857735;29;20041;-75
2022/10/27 08:26:57;;;;;;;17.75;9.10;;;;;;;;;;4858748;29;20105;-75
2022/10/27 08:29:23;;;;;;;19.83;9.77;;;;;;;;;;4855881;29;20396;-75
2022/10/27 08:31:48;;;;;;;21.33;10.27;;;;;;;;;;4859190;29;20036;-75
2022/10/27 08:34:14;;;;;;;21.08;9.63;;;;;;;;;;4858203;29;20513;-75
2022/10/27 08:36:40;;;;;;;29.02;10.05;;;;;;;;;;4858424;29;20051;-74
2022/10/27 08:39:10;;;;;;;23.63;9.10;;;;;;;;;;4858787;29;20397;-74
2022/10/27 08:41:43;;;;;;;24.30;8.60;;;;;;;;;;4859399;29;20030;-78
2022/10/27 08:44:20;;;;;;;22.15;9.88;;;;;;;;;;4859180;29;20121;-75
2022/10/27 08:46:51;;;;;;;20.80;9.43;;;;;;;;;;4857969;29;20117;-76
2022/10/27 08:49:30;;;;;;;21.35;9.52;;;;;;;;;;4857584;29;20924;-75
2022/10/27 08:52:10;;;;;;;34.17;12.98;;;;;;;;;;4859001;29;20037;-79
2022/10/27 08:54:36;;;;;;;17.90;10.05;;;;;;;;;;4853719;29;20362;-76
2022/10/27 08:57:04;;;;;;;17.77;9.13;;;;;;;;;;4858817;29;20026;-75
2022/10/27 08:59:33;;;;;;;23.27;10.23;;;;;;;;;;4858866;29;20049;-78
2022/10/27 09:02:15;;;;;;;20.15;9.98;;;;;;;;;;4857817;29;20349;-77
2022/10/27 09:05:23;;;;;;;23.20;10.38;;;;;;;;;;4858893;29;20069;-77
2022/10/27 09:08:26;;;;;;;20.92;10.18;;;;;;;;;;4853215;29;20041;-77
2022/10/27 09:11:10;;;;;;;25.90;10.93;;;;;;;;;;4855140;29;20045;-79
2022/10/27 09:13:57;;;;;;;26.73;10.88;;;;;;;;;;4854683;29;20041;-77
2022/10/27 09:16:37;;;;;;;26.05;10.68;;;;;;;;;;4857689;29;20420;-76
2022/10/27 09:19:08;;;;;;;21.60;10.63;;;;;;;;;;4858145;29;20034;-76
2022/10/27 09:21:36;;;;;;;17.23;9.38;;;;;;;;;;4858671;29;20038;-75
2022/10/27 09:24:16;;;;;;;22.25;9.90;;;;;;;;;;4858009;29;20044;-77
2022/10/27 09:26:44;;;;;;;23.92;10.48;;;;;;;;;;4859400;29;20421;-76
2022/10/27 09:29:23;;;;;;;20.30;9.80;;;;;;;;;;4857589;29;20315;-77
2022/10/27 09:31:57;;;;;;;25.48;9.60;;;;;;;;;;4863773;29;20541;-75
2022/10/27 09:35:00;;;;;;;21.58;8.60;;;;;;;;;;4853361;29;20037;-77
2022/10/27 09:37:27;;;;;;;21.77;8.65;;;;;;;;;;4850622;29;20029;-76
2022/10/27 09:39:53;;;;;;;24.65;9.10;;;;;;;;;;4857348;29;20052;-76
2022/10/27 09:42:20;;;;;;;18.58;7.93;;;;;;;;;;4858088;29;20038;-75
2022/10/27 09:44:54;;;;;;;21.70;8.57;;;;;;;;;;4857664;29;20568;-77
2022/10/27 09:47:22;;;;;;;22.10;8.52;;;;;;;;;;4857461;29;20044;-76
2022/10/27 09:49:49;;;;;;;21.10;8.00;;;;;;;;;;4857694;29;20039;-76
2022/10/27 09:52:22;;;;;;;24.52;7.65;;;;;;;;;;4856419;29;20041;-75
2022/10/27 09:54:56;;;;;;;17.33;8.07;;;;;;;;;;4858230;29;20042;-76
2022/10/27 09:57:28;;;;;;;13.57;7.50;;;;;;;;;;4857204;29;20460;-75
2022/10/27 10:00:05;;;;;;;18.95;8.15;;;;;;;;;;4857804;29;20536;-77
2022/10/27 10:02:40;;;;;;;24.15;7.82;;;;;;;;;;4853266;29;20064;-79
2022/10/27 10:05:27;;;;;;;19.20;7.80;;;;;;;;;;4857788;29;20480;-77
2022/10/27 10:08:13;;;;;;;18.95;8.05;;;;;;;;;;4857908;29;20493;-76
2022/10/27 10:10:51;;;;;;;21.30;9.40;;;;;;;;;;4856351;29;20041;-77
2022/10/27 10:13:17;;;;;;;20.50;7.68;;;;;;;;;;4871376;29;20085;-77
2022/10/27 10:15:45;;;;;;;27.30;9.10;;;;;;;;;;4871995;29;20108;-76
2022/10/27 10:18:27;;;;;;;15.50;8.05;;;;;;;;;;4856960;29;20182;-76
2022/10/27 10:21:02;;;;;;;14.60;8.15;;;;;;;;;;4857820;29;20125;-75
2022/10/27 10:23:34;;;;;;;22.23;7.22;;;;;;;;;;4851988;29;20120;-75
2022/10/27 10:26:02;;;;;;;19.67;8.38;;;;;;;;;;4857974;29;20400;-75
2022/10/27 10:28:34;;;;;;;17.95;7.47;;;;;;;;;;4857661;29;20433;-76
2022/10/27 10:31:04;;;;;;;18.90;7.32;;;;;;;;;;4859245;29;20073;-76
2022/10/27 10:33:43;;;;;;;19.48;7.63;;;;;;;;;;4857173;29;20094;-78
2022/10/27 10:36:28;;;;;;;14.10;6.93;;;;;;;;;;4857712;29;20042;-77
2022/10/27 10:38:59;;;;;;;15.13;7.07;;;;;;;;;;4855900;29;20526;-80
2022/10/27 10:41:26;;;;;;;17.95;7.60;;;;;;;;;;4852588;29;20400;-78
2022/10/27 10:44:16;;;;;;;19.98;7.75;;;;;;;;;;4857194;29;20092;-80
2022/10/27 10:46:52;;;;;;;23.33;8.40;;;;;;;;;;4853824;29;20037;-78
2022/10/27 10:49:29;;;;;;;15.35;7.38;;;;;;;;;;4859076;29;20037;-79
2022/10/27 10:51:58;;;;;;;15.95;7.72;;;;;;;;;;4860644;29;20041;-78
2022/10/27 10:54:32;;;;;;;17.80;7.28;;;;;;;;;;4855323;29;20062;-80
2022/10/27 10:56:58;;;;;;;16.35;6.78;;;;;;;;;;4861922;29;20480;-78
2022/10/27 10:59:33;;;;;;;12.23;6.40;;;;;;;;;;4860275;29;20077;-78
2022/10/27 11:02:12;;;;;;;15.63;7.45;;;;;;;;;;4862814;29;20042;-77
2022/10/27 11:04:43;;;;;;;19.08;7.78;;;;;;;;;;4859127;29;21056;-77
2022/10/27 11:07:31;;;;;;;12.25;6.75;;;;;;;;;;4859626;29;20109;-74
2022/10/27 11:10:16;;;;;;;18.70;7.35;;;;;;;;;;4861163;29;20030;-75
2022/10/27 11:12:55;;;;;;;19.95;8.35;;;;;;;;;;4861001;29;20037;-77
2022/10/27 11:15:45;;;;;;;20.20;7.93;;;;;;;;;;4861375;29;20048;-76
2022/10/27 11:18:28;;;;;;;16.98;8.18;;;;;;;;;;4861099;29;20110;-79
2022/10/27 11:21:11;;;;;;;22.92;10.63;;;;;;;;;;4861054;29;20117;-75
2022/10/27 11:23:43;;;;;;;;;;;;;;;;;;4855557;29;20041;-74
2022/10/27 11:26:10;;;;;;;19.63;7.80;;;;;;;;;;4861052;29;19943;-78
2022/10/27 11:28:57;;;;;;;16.65;7.57;;;;;;;;;;4861089;29;20026;-77
2022/10/27 11:31:36;;;;;;;23.20;8.15;;;;;;;;;;4863379;29;20056;-78
2022/10/27 11:34:12;;;;;;;13.95;7.60;;;;;;;;;;4864635;29;20052;-76
2022/10/27 11:37:00;;;;;;;18.83;9.13;;;;;;;;;;4861717;29;20052;-77
2022/10/27 11:39:31;;;;;;;15.02;7.00;;;;;;;;;;4855845;29;20169;-75
2022/10/27 11:42:03;;;;;;;24.75;7.80;;;;;;;;;;4860742;29;20485;-78
2022/10/27 11:44:33;;;;;;;14.82;7.70;;;;;;;;;;4861419;29;20485;-79
2022/10/27 11:47:13;;;;;;;13.70;7.70;;;;;;;;;;4860199;29;20078;-79
2022/10/27 11:50:02;;;;;;;15.20;7.25;;;;;;;;;;4855288;29;20036;-79
2022/10/27 11:52:49;;;;;;;16.30;7.97;;;;;;;;;;4870563;29;20477;-77
2022/10/27 11:55:17;;;;;;;19.77;7.10;;;;;;;;;;4860656;29;20034;-73
2022/10/27 11:57:47;;;;;;;17.83;8.00;;;;;;;;;;4860568;29;20163;-76
2022/10/27 12:00:21;;;;;;;21.58;7.93;;;;;;;;;;4860097;29;20033;-77
2022/10/27 12:03:05;;;;;;;21.98;6.63;;;;;;;;;;4860548;29;20045;-75
2022/10/27 12:05:49;;;;;;;10.65;5.88;;;;;;;;;;4860314;29;20029;-75
2022/10/27 12:08:38;;;;;;;14.52;6.97;;;;;;;;;;4860341;29;20465;-77
2022/10/27 12:11:10;;;;;;;14.73;6.13;;;;;;;;;;4860512;29;20052;-75
2022/10/27 12:13:58;;;;;;;15.93;6.15;;;;;;;;;;4860666;29;20079;-75
2022/10/27 12:16:30;;;;;;;16.35;7.00;;;;;;;;;;4854087;29;20120;-74
2022/10/27 12:18:55;;;;;;;13.55;5.82;;;;;;;;;;4860768;29;20041;-78
2022/10/27 12:21:26;;;;;;;14.93;6.30;;;;;;;;;;4860899;29;20025;-76
2022/10/27 12:24:08;;;;;;;12.50;5.72;;;;;;;;;;4860608;29;20041;-76
2022/10/27 12:26:44;;;;;;;15.15;6.00;;;;;;;;;;4860645;29;20089;-76
2022/10/27 12:29:11;;;;;;;12.32;5.97;;;;;;;;;;4859765;29;20029;-78
2022/10/27 12:32:09;;;;;;;11.65;5.88;;;;;;;;;;4860279;29;20026;-75
2022/10/27 12:34:45;;;;;;;15.88;6.32;;;;;;;;;;4855275;29;20137;-76
2022/10/27 12:37:14;;;;;;;12.57;6.47;;;;;;;;;;4859713;29;20050;-75
2022/10/27 12:39:52;;;;;;;14.18;6.40;;;;;;;;;;4859533;29;20044;-75
2022/10/27 12:42:35;;;;;;;13.50;7.00;;;;;;;;;;4862598;29;20386;-76
2022/10/27 12:45:29;;;;;;;17.47;7.30;;;;;;;;;;4860115;29;20038;-74
2022/10/27 12:48:12;;;;;;;13.40;7.88;;;;;;;;;;4859565;29;20283;-73
2022/10/27 12:50:55;;;;;;;;;;;;;;;;;;4869524;29;20045;-73
2022/10/27 12:53:37;;;;;;;20.30;7.90;;;;;;;;;;4851114;29;19919;-74
2022/10/27 12:56:18;;;;;;;22.88;7.50;;;;;;;;;;4858846;29;20175;-74
2022/10/27 12:58:58;;;;;;;19.05;9.25;;;;;;;;;;4874688;29;20029;-73
2022/10/27 13:01:34;;;;;;;19.75;8.75;;;;;;;;;;4867790;29;20148;-75
2022/10/27 13:04:31;;;;;;;21.00;7.28;;;;;;;;;;4872229;29;20044;-75
2022/10/27 13:07:21;;;;;;;16.15;6.65;;;;;;;;;;4858147;29;20041;-75
2022/10/27 13:09:55;;;;;;;14.55;7.35;;;;;;;;;;4855262;29;20905;-75
2022/10/27 13:12:36;;;;;;;14.00;6.63;;;;;;;;;;4867993;29;20040;-76
2022/10/27 13:15:29;;;;;;;13.65;7.05;;;;;;;;;;4869402;29;20160;-75
2022/10/27 13:18:07;;;;;;;17.20;8.37;;;;;;;;;;4866662;29;20041;-75
2022/10/27 13:20:48;;;;;;;18.50;8.13;;;;;;;;;;4859860;29;20327;-74
2022/10/27 13:23:22;;;;;;;11.45;6.47;;;;;;;;;;4867825;29;20040;-76
2022/10/27 13:25:56;;;;;;;16.73;7.28;;;;;;;;;;4862989;29;20069;-74
2022/10/27 13:28:35;;;;;;;15.85;7.55;;;;;;;;;;4867489;29;20489;-75
2022/10/27 13:31:16;;;;;;;14.35;5.57;;;;;;;;;;4870194;29;20045;-75
2022/10/27 13:34:02;;;;;;;12.43;5.20;;;;;;;;;;4857805;29;20041;-75
2022/10/27 13:36:28;;;;;;;16.23;5.20;;;;;;;;;;4859227;29;20460;-74
2022/10/27 13:39:12;;;;;;;16.17;5.03;;;;;;;;;;4858973;29;20125;-72
2022/10/27 13:41:59;;;;;;;10.63;5.10;;;;;;;;;;4865097;29;20077;-75
2022/10/27 13:44:29;;;;;;;9.55;5.00;;;;;;;;;;4858859;29;20173;-75
2022/10/27 13:47:04;;;;;;;12.93;5.40;;;;;;;;;;4865190;29;20452;-74
2022/10/27 13:49:51;;;;;;;10.90;5.00;;;;;;;;;;4857369;29;20033;-77
2022/10/27 13:52:20;;;;;;;11.10;4.57;;;;;;;;;;4869384;29;20893;-74
2022/10/27 13:55:24;;;;;;;12.05;5.00;;;;;;;;;;4872225;29;20445;-74
2022/10/27 13:58:18;;;;;;;13.43;4.70;;;;;;;;;;4795433;29;20031;-73
2022/10/27 14:01:19;;;;;;;12.63;5.22;;;;;;;;;;4866271;29;20135;-74
2022/10/27 14:04:13;;;;;;;8.65;4.43;;;;;;;;;;4867416;29;20508;-75
2022/10/27 14:06:44;;;;;;;9.55;4.20;;;;;;;;;;4864747;29;20392;-74
2022/10/27 14:09:10;;;;;;;12.05;5.25;;;;;;;;;;4868265;29;20029;-75
2022/10/27 14:11:36;;;;;;;15.50;4.47;;;;;;;;;;4865017;29;20041;-73
2022/10/27 14:14:06;;;;;;;11.85;4.95;;;;;;;;;;4869977;29;20037;-73
2022/10/27 14:16:37;;;;;;;9.05;4.40;;;;;;;;;;4871405;29;20022;-74
2022/10/27 14:19:26;;;;;;;8.55;5.10;;;;;;;;;;4870112;29;20044;-76
2022/10/27 14:21:54;;;;;;;13.13;4.97;;;;;;;;;;4855710;29;20427;-75
2022/10/27 14:24:41;;;;;;;9.65;4.60;;;;;;;;;;4863472;29;20089;-74
2022/10/27 14:27:14;;;;;;;9.68;4.55;;;;;;;;;;4859725;29;20028;-75
2022/10/27 14:29:39;;;;;;;14.48;4.45;;;;;;;;;;4861697;29;20104;-75
2022/10/27 14:32:19;;;;;;;12.15;4.38;;;;;;;;;;4861727;29;20034;-74
2022/10/27 14:34:46;;;;;;;9.32;4.45;;;;;;;;;;4863608;29;20311;-77
2022/10/27 14:37:27;;;;;;;10.65;4.85;;;;;;;;;;4863100;29;20042;-76
2022/10/27 14:39:55;;;;;;;12.25;4.82;;;;;;;;;;4887205;29;20040;-75
2022/10/27 14:42:21;;;;;;;8.55;4.57;;;;;;;;;;4869651;29;20024;-73
2022/10/27 14:44:56;;;;;;;7.25;3.92;;;;;;;;;;4873271;29;20045;-74
2022/10/27 14:47:23;;;;;;;9.88;4.50;;;;;;;;;;4870276;29;20052;-74
2022/10/27 14:49:55;;;;;;;8.52;3.88;;;;;;;;;;4865230;29;20026;-74
2022/10/27 14:52:34;;;;;;;8.60;4.68;;;;;;;;;;4863041;29;20038;-74